createdAt,value
2023-02-22T00:01:03.001Z,98727.28
2023-02-22T00:03:35.026Z,98730.53
2023-02-22T00:06:04.984Z,98725.94
2023-02-22T00:08:37.921Z,98728.87
2023-02-22T00:11:10.426Z,98731.44
2023-02-22T00:13:38.503Z,98732.72
2023-02-22T00:16:06.392Z,98739.06
2023-02-22T00:18:33.332Z,98739.53
2023-02-22T00:21:01.256Z,98734.59
2023-02-22T00:23:29.957Z,98732.78
2023-02-22T00:25:58.771Z,98735.97
2023-02-22T00:28:25.658Z,98740.53
2023-02-22T00:30:52.926Z,98737.72
2023-02-22T00:33:19.765Z,98740.06
2023-02-22T00:35:46.656Z,98735.47
2023-02-22T00:38:16.381Z,98739.22
2023-02-22T00:40:43.425Z,98740.75
2023-02-22T00:43:10.214Z,98742.03
2023-02-22T00:45:37.878Z,98743.53
2023-02-22T00:48:06.177Z,98742.94
2023-02-22T00:50:33.705Z,98741.97
2023-02-22T00:53:03.814Z,98745.72
2023-02-22T00:55:33.721Z,98736.81
2023-02-22T00:58:02.136Z,98737.84
2023-02-22T01:00:41.734Z,98735.63
2023-02-22T01:03:11.641Z,98733.75
2023-02-22T01:05:38.949Z,98740.28
2023-02-22T01:08:08.246Z,98738.66
2023-02-22T01:10:35.392Z,98728.06
2023-02-22T01:13:08.594Z,98732.19
2023-02-22T01:15:37.785Z,98729.91
2023-02-22T01:18:05.652Z,98725.38
2023-02-22T01:20:33.241Z,98727.44
2023-02-22T01:23:03.610Z,98723.34
2023-02-22T01:25:31.683Z,98717.72
2023-02-22T01:28:00.932Z,98723.56
2023-02-22T01:30:31.029Z,98716.75
2023-02-22T01:32:58.123Z,98718.50
2023-02-22T01:35:29.088Z,98722.47
2023-02-22T01:37:58.180Z,98714.47
2023-02-22T01:40:33.864Z,98720.69
2023-02-22T01:43:03.346Z,98723.16
2023-02-22T01:45:30.245Z,98726.91
2023-02-22T01:48:02.053Z,98717.59
2023-02-22T01:50:31.880Z,98720.87
2023-02-22T01:52:58.892Z,98722.16
2023-02-22T01:55:25.980Z,98728.25
2023-02-22T01:57:52.883Z,98724.81
2023-02-22T02:00:21.549Z,98723.16
2023-02-22T02:02:54.368Z,98721.97
2023-02-22T02:05:21.432Z,98720.56
2023-02-22T02:07:49.426Z,98718.91
2023-02-22T02:10:16.276Z,98710.03
2023-02-22T02:12:46.835Z,98718.69
2023-02-22T02:15:29.031Z,98719.72
2023-02-22T02:18:00.778Z,98716.03
2023-02-22T02:20:30.949Z,98713.56
2023-02-22T02:23:06.470Z,98711.91
2023-02-22T02:25:52.357Z,98703.81
2023-02-22T02:29:00.420Z,98701.94
2023-02-22T02:32:18.741Z,98711.09
2023-02-22T02:34:58.789Z,98700.06
2023-02-22T02:37:31.601Z,98701.12
2023-02-22T02:40:12.176Z,98700.28
2023-02-22T02:42:46.260Z,98702.53
2023-02-22T02:45:21.799Z,98701.34
2023-02-22T02:47:57.245Z,98699.34
2023-02-22T02:50:29.694Z,98695.00
2023-02-22T02:53:01.336Z,98700.59
2023-02-22T02:55:31.033Z,98699.47
2023-02-22T02:57:59.381Z,98699.09
2023-02-22T03:00:31.205Z,98701.09
2023-02-22T03:03:23.696Z,98685.97
2023-02-22T03:05:59.623Z,98691.78
2023-02-22T03:08:32.616Z,98686.22
2023-02-22T03:11:31.418Z,98687.72
2023-02-22T03:14:16.500Z,98693.91
2023-02-22T03:16:52.265Z,98686.06
2023-02-22T03:19:45.786Z,98693.78
2023-02-22T03:22:25.026Z,98691.31
2023-02-22T03:25:02.235Z,98691.53
2023-02-22T03:27:37.442Z,98695.28
2023-02-22T03:30:10.389Z,98692.22
2023-02-22T03:32:41.516Z,98696.56
2023-02-22T03:35:13.141Z,98693.91
2023-02-22T03:37:45.062Z,98696.00
2023-02-22T03:40:26.510Z,98692.47
2023-02-22T03:42:59.427Z,98703.69
2023-02-22T03:45:29.332Z,98701.22
2023-02-22T03:48:10.360Z,98703.56
2023-02-22T03:50:38.463Z,98701.06
2023-02-22T03:53:05.649Z,98703.19
2023-02-22T03:55:33.031Z,98702.56
2023-02-22T03:58:04.811Z,98707.97
2023-02-22T04:00:33.942Z,98711.94
2023-02-22T04:03:00.921Z,98713.16
2023-02-22T04:05:27.794Z,98711.97
2023-02-22T04:07:56.640Z,98712.63
2023-02-22T04:10:24.331Z,98716.59
2023-02-22T04:12:51.479Z,98710.53
2023-02-22T04:15:21.969Z,98707.69
2023-02-22T04:17:48.861Z,98712.47
2023-02-22T04:20:19.957Z,98708.34
2023-02-22T04:22:47.466Z,98712.69
2023-02-22T04:25:15.051Z,98708.94
2023-02-22T04:27:41.942Z,98716.81
2023-02-22T04:30:09.557Z,98713.50
2023-02-22T04:32:36.577Z,98716.88
2023-02-22T04:35:04.848Z,98708.59
2023-02-22T04:37:34.800Z,98716.09
2023-02-22T04:40:02.394Z,98711.13
2023-02-22T04:42:29.344Z,98714.88
2023-02-22T04:44:56.162Z,98710.09
2023-02-22T04:47:23.026Z,98708.88
2023-02-22T04:49:49.873Z,98710.75
2023-02-22T04:52:16.826Z,98709.72
2023-02-22T04:54:43.740Z,98714.50
2023-02-22T04:57:11.066Z,98708.72
2023-02-22T04:59:37.962Z,98710.81
2023-02-22T05:02:04.841Z,98707.50
2023-02-22T05:04:31.749Z,98710.41
2023-02-22T05:06:58.565Z,98704.66
2023-02-22T05:09:25.366Z,98709.59
2023-02-22T05:11:52.201Z,98708.34
2023-02-22T05:14:18.993Z,98713.56
2023-02-22T05:16:45.774Z,98706.72
2023-02-22T05:19:12.759Z,98706.50
2023-02-22T05:21:40.360Z,98705.25
2023-02-22T05:24:07.656Z,98712.72
2023-02-22T05:26:34.686Z,98709.59
2023-02-22T05:29:01.535Z,98707.34
2023-02-22T05:31:28.435Z,98710.63
2023-02-22T05:33:55.294Z,98706.06
2023-02-22T05:36:22.058Z,98708.38
2023-02-22T05:38:48.875Z,98709.44
2023-02-22T05:41:16.092Z,98704.69
2023-02-22T05:43:43.117Z,98707.00
2023-02-22T05:46:10.014Z,98710.97
2023-02-22T05:48:37.015Z,98717.81
2023-02-22T05:51:04.555Z,98715.50
2023-02-22T05:53:31.410Z,98714.50
2023-02-22T05:55:58.302Z,98714.50
2023-02-22T05:58:25.161Z,98717.84
2023-02-22T06:00:52.081Z,98718.28
2023-02-22T06:03:18.902Z,98719.31
2023-02-22T06:05:45.937Z,98722.41
2023-02-22T06:08:12.773Z,98726.34
2023-02-22T06:10:39.669Z,98725.12
2023-02-22T06:13:07.281Z,98725.34
2023-02-22T06:15:34.248Z,98730.06
2023-02-22T06:18:01.696Z,98729.25
2023-02-22T06:20:30.165Z,98735.25
2023-02-22T06:22:58.585Z,98737.31
2023-02-22T06:25:31.131Z,98743.53
2023-02-22T06:27:59.441Z,98747.88
2023-02-22T06:30:27.648Z,98746.62
2023-02-22T06:32:54.631Z,98747.88
2023-02-22T06:35:22.042Z,98750.56
2023-02-22T06:37:49.060Z,98760.28
2023-02-22T06:40:16.243Z,98757.59
2023-02-22T06:42:43.223Z,98761.72
2023-02-22T06:45:10.789Z,98758.22
2023-02-22T06:47:41.457Z,98759.25
2023-02-22T06:50:19.448Z,98763.81
2023-02-22T06:52:47.969Z,98768.16
2023-02-22T06:55:26.758Z,98768.97
2023-02-22T06:57:53.669Z,98772.66
2023-02-22T07:00:25.011Z,98777.03
2023-02-22T07:02:52.841Z,98769.56
2023-02-22T07:05:22.157Z,98768.91
2023-02-22T07:07:52.638Z,98773.03
2023-02-22T07:10:22.426Z,98768.03
2023-02-22T07:12:49.265Z,98770.53
2023-02-22T07:15:18.355Z,98764.69
2023-02-22T07:17:45.378Z,98765.94
2023-02-22T07:20:12.244Z,98767.59
2023-02-22T07:22:39.676Z,98768.03
2023-02-22T07:25:10.065Z,98765.09
2023-02-22T07:27:38.753Z,98768.78
2023-02-22T07:30:07.323Z,98761.31
2023-02-22T07:32:34.395Z,98762.53
2023-02-22T07:35:03.048Z,98755.88
2023-02-22T07:37:30.341Z,98762.47
2023-02-22T07:39:57.182Z,98765.59
2023-02-22T07:42:24.030Z,98761.41
2023-02-22T07:44:50.795Z,98760.13
2023-02-22T07:47:17.597Z,98753.03
2023-02-22T07:49:44.418Z,98756.94
2023-02-22T07:52:12.753Z,98747.38
2023-02-22T07:54:39.717Z,98750.84
2023-02-22T07:57:06.579Z,98756.03
2023-02-22T07:59:34.041Z,98753.28
2023-02-22T08:02:00.899Z,98755.91
2023-02-22T08:04:27.651Z,98748.81
2023-02-22T08:06:54.453Z,98754.16
2023-02-22T08:09:21.291Z,98752.19
2023-02-22T08:11:48.100Z,98751.31
2023-02-22T08:14:17.409Z,98740.69
2023-02-22T08:16:44.275Z,98740.62
2023-02-22T08:19:11.216Z,98744.88
2023-02-22T08:21:37.979Z,98752.09
2023-02-22T08:24:05.214Z,98746.62
2023-02-22T08:26:32.012Z,98744.06
2023-02-22T08:28:58.805Z,98744.81
2023-02-22T08:31:25.654Z,98735.00
2023-02-22T08:33:52.512Z,98737.00
2023-02-22T08:36:19.390Z,98737.53
2023-02-22T08:38:46.251Z,98732.84
2023-02-22T08:41:13.085Z,98732.56
2023-02-22T08:43:39.874Z,98733.88
2023-02-22T08:46:06.732Z,98744.16
2023-02-22T08:48:33.598Z,98735.94
2023-02-22T08:51:00.397Z,98739.38
2023-02-22T08:53:27.225Z,98733.63
2023-02-22T08:55:54.164Z,98734.13
2023-02-22T08:58:20.981Z,98738.38
2023-02-22T09:00:47.972Z,98740.75
2023-02-22T09:03:15.364Z,98740.44
2023-02-22T09:05:44.016Z,98741.16
2023-02-22T09:08:11.172Z,98735.03
2023-02-22T09:10:38.022Z,98736.00
2023-02-22T09:13:05.289Z,98738.59
2023-02-22T09:15:33.191Z,98737.41
2023-02-22T09:18:00.537Z,98734.81
2023-02-22T09:20:29.126Z,98734.13
2023-02-22T09:22:56.476Z,98744.81
2023-02-22T09:25:23.957Z,98744.69
2023-02-22T09:27:52.695Z,98740.44
2023-02-22T09:30:32.476Z,98735.19
2023-02-22T09:33:10.101Z,98728.81
2023-02-22T09:35:38.080Z,98729.72
2023-02-22T09:38:08.276Z,98731.47
2023-02-22T09:40:45.085Z,98734.31
2023-02-22T09:43:21.401Z,98727.13
2023-02-22T09:46:13.758Z,98729.69
2023-02-22T09:49:16.052Z,98716.00
2023-02-22T09:51:52.735Z,98721.66
2023-02-22T09:54:30.026Z,98718.88
2023-02-22T09:57:00.544Z,98712.47
2023-02-22T09:59:37.590Z,98705.31
2023-02-22T10:02:25.350Z,98700.28
2023-02-22T10:05:17.813Z,98695.53
2023-02-22T10:07:54.247Z,98692.69
2023-02-22T10:10:23.553Z,98696.06
2023-02-22T10:13:23.692Z,98695.06
2023-02-22T10:16:12.214Z,98685.13
2023-02-22T10:19:17.193Z,98685.03
2023-02-22T10:22:26.583Z,98676.47
2023-02-22T10:25:12.951Z,98681.00
2023-02-22T10:27:44.928Z,98688.97
2023-02-22T10:30:24.452Z,98686.31
2023-02-22T10:33:18.438Z,98685.66
2023-02-22T10:35:47.105Z,98675.72
2023-02-22T10:38:24.407Z,98682.03
2023-02-22T10:40:58.014Z,98677.72
2023-02-22T10:43:25.838Z,98684.63
2023-02-22T10:46:01.353Z,98674.16
2023-02-22T10:48:31.206Z,98674.47
2023-02-22T10:51:03.528Z,98668.28
2023-02-22T10:53:30.918Z,98674.28
2023-02-22T10:56:21.744Z,98675.69
2023-02-22T10:59:02.353Z,98665.72
2023-02-22T11:01:32.283Z,98666.34
2023-02-22T11:04:19.132Z,98661.22
2023-02-22T11:06:48.970Z,98657.19
2023-02-22T11:09:18.642Z,98655.34
2023-02-22T11:11:47.870Z,98648.56
2023-02-22T11:14:34.973Z,98647.84
2023-02-22T11:17:07.914Z,98636.75
2023-02-22T11:19:38.306Z,98641.41
2023-02-22T11:22:05.086Z,98636.28
2023-02-22T11:24:40.350Z,98630.69
2023-02-22T11:27:43.888Z,98624.22
2023-02-22T11:30:22.144Z,98625.38
2023-02-22T11:32:54.730Z,98620.81
2023-02-22T11:35:35.487Z,98625.50
2023-02-22T11:38:16.356Z,98614.94
2023-02-22T11:40:44.369Z,98615.78
2023-02-22T11:43:18.961Z,98615.31
2023-02-22T11:46:17.634Z,98616.19
2023-02-22T11:49:05.152Z,98605.91
2023-02-22T11:51:40.852Z,98604.84
2023-02-22T11:54:22.563Z,98601.09
2023-02-22T11:56:53.543Z,98600.31
2023-02-22T11:59:32.337Z,98596.81
2023-02-22T12:02:05.476Z,98590.84
2023-02-22T12:05:10.828Z,98589.75
2023-02-22T12:07:44.696Z,98586.50
2023-02-22T12:10:44.177Z,98579.72
2023-02-22T12:13:34.182Z,98578.91
2023-02-22T12:16:03.972Z,98572.72
2023-02-22T12:18:33.790Z,98568.37
2023-02-22T12:21:05.691Z,98567.56
2023-02-22T12:23:53.384Z,98562.41
2023-02-22T12:26:30.543Z,98566.25
2023-02-22T12:29:28.200Z,98562.72
2023-02-22T12:32:00.888Z,98552.69
2023-02-22T12:34:27.657Z,98557.06
2023-02-22T12:37:23.453Z,98542.91
2023-02-22T12:40:10.208Z,98542.09
2023-02-22T12:42:36.936Z,98542.38
2023-02-22T12:45:11.666Z,98534.25
2023-02-22T12:47:46.474Z,98529.91
2023-02-22T12:50:20.257Z,98528.25
2023-02-22T12:52:56.082Z,98522.53
2023-02-22T12:55:37.445Z,98522.81
2023-02-22T12:58:25.198Z,98521.22
2023-02-22T13:01:05.871Z,98523.44
2023-02-22T13:03:43.064Z,98517.97
2023-02-22T13:06:27.961Z,98516.91
2023-02-22T13:08:54.762Z,98512.53
2023-02-22T13:11:48.752Z,98511.72
2023-02-22T13:14:34.088Z,98506.53
2023-02-22T13:17:21.232Z,98502.19
2023-02-22T13:20:20.094Z,98508.75
2023-02-22T13:23:02.894Z,98499.19
2023-02-22T13:25:58.092Z,98491.56
2023-02-22T13:29:13.857Z,98491.84
2023-02-22T13:32:09.376Z,98493.75
2023-02-22T13:35:01.132Z,98498.38
2023-02-22T13:37:52.345Z,98494.03
2023-02-22T13:40:43.460Z,98489.12
2023-02-22T13:43:34.297Z,98487.47
2023-02-22T13:46:25.522Z,98488.56
2023-02-22T13:49:05.804Z,98489.91
2023-02-22T13:51:45.035Z,98483.09
2023-02-22T13:54:20.968Z,98485.25
2023-02-22T13:56:50.227Z,98481.44
2023-02-22T13:59:36.441Z,98472.97
2023-02-22T14:02:07.898Z,98469.16
2023-02-22T14:04:42.395Z,98467.00
2023-02-22T14:07:18.401Z,98462.91
2023-02-22T14:09:49.250Z,98468.63
2023-02-22T14:12:31.342Z,98470.25
2023-02-22T14:15:18.693Z,98460.69
2023-02-22T14:18:07.449Z,98456.06
2023-02-22T14:20:40.155Z,98456.06
2023-02-22T14:23:31.933Z,98454.94
2023-02-22T14:26:10.565Z,98451.41
2023-02-22T14:28:40.416Z,98451.94
2023-02-22T14:31:29.526Z,98450.84
2023-02-22T14:34:11.928Z,98445.13
2023-02-22T14:36:41.795Z,98448.09
2023-02-22T14:39:34.428Z,98448.63
2023-02-22T14:42:22.507Z,98450.03
2023-02-22T14:45:08.751Z,98450.03
2023-02-22T14:47:54.448Z,98445.38
2023-02-22T14:50:28.233Z,98444.56
2023-02-22T14:53:04.294Z,98443.47
2023-02-22T14:55:46.705Z,98444.28
2023-02-22T14:58:18.903Z,98445.38
2023-02-22T15:00:53.104Z,98445.09
2023-02-22T15:03:37.417Z,98440.47
2023-02-22T15:06:15.246Z,98443.19
2023-02-22T15:08:48.727Z,98435.00
2023-02-22T15:11:32.448Z,98442.09
2023-02-22T15:14:01.195Z,98441.00
2023-02-22T15:16:32.793Z,98436.34
2023-02-22T15:19:04.892Z,98440.19
2023-02-22T15:21:32.279Z,98438.25
2023-02-22T15:24:02.044Z,98438.25
2023-02-22T15:26:59.236Z,98438.25
2023-02-22T15:29:38.072Z,98433.63
2023-02-22T15:32:20.161Z,98437.72
2023-02-22T15:34:47.119Z,98432.28
2023-02-22T15:37:25.437Z,98427.09
2023-02-22T15:39:59.509Z,98434.47
2023-02-22T15:42:29.746Z,98421.91
2023-02-22T15:44:57.077Z,98426.56
2023-02-22T15:47:25.483Z,98429.53
2023-02-22T15:50:16.171Z,98431.72
2023-02-22T15:53:01.855Z,98436.38
2023-02-22T15:55:37.731Z,98436.44
2023-02-22T15:58:12.039Z,98434.25
2023-02-22T16:00:42.296Z,98430.16
2023-02-22T16:03:15.066Z,98434.53
2023-02-22T16:05:52.589Z,98433.97
2023-02-22T16:08:53.973Z,98430.16
2023-02-22T16:11:30.917Z,98435.62
2023-02-22T16:14:05.123Z,98433.97
2023-02-22T16:16:41.598Z,98431.53
2023-02-22T16:19:27.765Z,98440.25
2023-02-22T16:22:03.529Z,98435.91
2023-02-22T16:24:33.650Z,98433.22
2023-02-22T16:27:12.977Z,98441.13
2023-02-22T16:29:41.137Z,98439.47
2023-02-22T16:32:09.322Z,98440.03
2023-02-22T16:34:36.679Z,98444.41
2023-02-22T16:37:03.641Z,98441.41
2023-02-22T16:39:32.961Z,98446.87
2023-02-22T16:42:05.512Z,98440.56
2023-02-22T16:44:32.475Z,98443.59
2023-02-22T16:47:00.761Z,98443.84
2023-02-22T16:49:27.869Z,98442.50
2023-02-22T16:51:58.751Z,98447.13
2023-02-22T16:54:35.120Z,98456.06
2023-02-22T16:57:04.880Z,98461.25
2023-02-22T16:59:37.960Z,98457.66
2023-02-22T17:02:10.848Z,98462.84
2023-02-22T17:04:38.097Z,98469.09
2023-02-22T17:07:05.918Z,98467.47
2023-02-22T17:09:33.346Z,98469.31
2023-02-22T17:12:02.465Z,98472.59
2023-02-22T17:14:33.793Z,98474.47
2023-02-22T17:17:00.991Z,98476.09
2023-02-22T17:19:28.530Z,98479.09
2023-02-22T17:21:56.165Z,98474.75
2023-02-22T17:24:29.636Z,98478.00
2023-02-22T17:26:59.513Z,98477.47
2023-02-22T17:29:28.065Z,98470.91
2023-02-22T17:31:55.753Z,98477.94
2023-02-22T17:34:23.548Z,98477.13
2023-02-22T17:36:52.169Z,98479.00
2023-02-22T17:39:19.819Z,98481.72
2023-02-22T17:41:52.965Z,98478.16
2023-02-22T17:44:22.418Z,98482.47
2023-02-22T17:46:50.209Z,98475.63
2023-02-22T17:49:19.098Z,98474.25
2023-02-22T17:51:49.760Z,98473.44
2023-02-22T17:54:18.164Z,98466.91
2023-02-22T17:56:46.146Z,98471.72
2023-02-22T17:59:13.810Z,98469.53
2023-02-22T18:01:47.194Z,98467.34
2023-02-22T18:04:14.956Z,98473.53
2023-02-22T18:06:44.058Z,98465.81
2023-02-22T18:09:12.604Z,98471.50
2023-02-22T18:11:40.652Z,98466.12
2023-02-22T18:14:11.083Z,98459.31
2023-02-22T18:16:39.943Z,98463.91
2023-02-22T18:19:11.860Z,98460.09
2023-02-22T18:21:42.092Z,98461.16
2023-02-22T18:24:10.138Z,98461.69
2023-02-22T18:26:39.521Z,98455.16
2023-02-22T18:29:07.467Z,98452.44
2023-02-22T18:31:35.503Z,98460.84
2023-02-22T18:34:04.403Z,98456.75
2023-02-22T18:36:33.570Z,98451.59
2023-02-22T18:39:02.016Z,98450.44
2023-02-22T18:41:29.974Z,98454.47
2023-02-22T18:44:00.554Z,98444.69
2023-02-22T18:46:30.701Z,98449.56
2023-02-22T18:49:00.360Z,98438.44
2023-02-22T18:51:29.462Z,98446.53
2023-02-22T18:54:03.312Z,98450.34
2023-02-22T18:56:34.520Z,98447.06
2023-02-22T18:59:04.223Z,98442.94
2023-02-22T19:01:39.263Z,98444.28
2023-02-22T19:04:12.995Z,98450.50
2023-02-22T19:06:43.052Z,98444.50
2023-02-22T19:09:13.014Z,98438.72
2023-02-22T19:11:45.353Z,98445.41
2023-02-22T19:14:14.980Z,98442.38
2023-02-22T19:16:46.700Z,98443.72
2023-02-22T19:19:16.916Z,98442.88
2023-02-22T19:21:44.654Z,98442.03
2023-02-22T19:24:13.877Z,98440.66
2023-02-22T19:26:52.201Z,98440.94
2023-02-22T19:29:24.320Z,98443.03
2023-02-22T19:31:54.177Z,98444.13
2023-02-22T19:34:25.365Z,98444.38
2023-02-22T19:36:54.813Z,98444.09
2023-02-22T19:39:24.693Z,98441.97
2023-02-22T19:41:53.870Z,98441.97
2023-02-22T19:44:25.437Z,98450.12
2023-02-22T19:46:58.817Z,98449.00
2023-02-22T19:49:28.508Z,98460.38
2023-02-22T19:51:58.708Z,98463.84
2023-02-22T19:54:27.145Z,98458.38
2023-02-22T19:56:58.881Z,98463.50
2023-02-22T19:59:27.562Z,98464.47
2023-02-22T20:01:57.306Z,98466.38
2023-02-22T20:04:26.258Z,98469.59
2023-02-22T20:06:55.501Z,98463.31
2023-02-22T20:09:37.989Z,98464.31
2023-02-22T20:12:08.799Z,98467.53
2023-02-22T20:14:39.813Z,98461.22
2023-02-22T20:17:09.626Z,98470.19
2023-02-22T20:19:39.368Z,98469.03
2023-02-22T20:22:08.255Z,98470.38
2023-02-22T20:24:44.538Z,98469.50
2023-02-22T20:27:13.249Z,98468.59
2023-02-22T20:29:43.495Z,98470.94
2023-02-22T20:32:16.621Z,98474.16
2023-02-22T20:34:49.813Z,98474.41
2023-02-22T20:37:22.512Z,98471.13
2023-02-22T20:39:54.061Z,98470.81
2023-02-22T20:42:22.829Z,98466.41
2023-02-22T20:44:51.513Z,98469.87
2023-02-22T20:47:19.778Z,98469.78
2023-02-22T20:49:48.641Z,98475.19
2023-02-22T20:52:17.604Z,98472.75
2023-02-22T20:54:47.058Z,98478.41
2023-02-22T20:57:15.430Z,98474.63
2023-02-22T20:59:46.127Z,98476.47
2023-02-22T21:02:14.776Z,98474.00
2023-02-22T21:04:45.134Z,98475.31
2023-02-22T21:07:14.102Z,98471.47
2023-02-22T21:09:43.106Z,98475.75
2023-02-22T21:12:14.010Z,98470.34
2023-02-22T21:14:46.848Z,98474.94
2023-02-22T21:17:14.881Z,98479.75
2023-02-22T21:19:43.169Z,98473.44
2023-02-22T21:22:11.503Z,98466.63
2023-02-22T21:24:39.490Z,98477.72
2023-02-22T21:27:07.680Z,98474.69
2023-02-22T21:29:37.073Z,98476.56
2023-02-22T21:32:05.397Z,98477.31
2023-02-22T21:34:34.391Z,98475.31
2023-02-22T21:37:02.670Z,98476.63
2023-02-22T21:39:30.861Z,98477.37
2023-02-22T21:42:02.252Z,98475.75
2023-02-22T21:44:30.934Z,98470.56
2023-02-22T21:46:58.914Z,98474.59
2023-02-22T21:49:28.917Z,98472.88
2023-02-22T21:51:56.570Z,98472.06
2023-02-22T21:54:24.177Z,98476.91
2023-02-22T21:56:51.546Z,98471.47
2023-02-22T21:59:20.875Z,98464.06
2023-02-22T22:01:50.446Z,98476.78
2023-02-22T22:04:20.589Z,98473.25
2023-02-22T22:06:53.000Z,98463.41
2023-02-22T22:09:23.378Z,98469.66
2023-02-22T22:11:53.584Z,98465.31
2023-02-22T22:14:23.413Z,98465.56
2023-02-22T22:16:52.798Z,98467.09
2023-02-22T22:19:19.982Z,98464.91
2023-02-22T22:21:47.132Z,98465.97
2023-02-22T22:24:13.910Z,98463.25
2023-02-22T22:26:40.873Z,98457.59
2023-02-22T22:29:11.559Z,98467.59
2023-02-22T22:31:38.837Z,98462.06
2023-02-22T22:34:06.241Z,98462.56
2023-02-22T22:36:34.507Z,98462.97
2023-02-22T22:39:01.416Z,98471.41
2023-02-22T22:41:28.354Z,98467.06
2023-02-22T22:43:55.819Z,98459.44
2023-02-22T22:46:23.033Z,98462.41
2023-02-22T22:48:49.884Z,98461.50
2023-02-22T22:51:20.343Z,98463.38
2023-02-22T22:53:49.033Z,98459.47
2023-02-22T22:56:21.544Z,98468.91
2023-02-22T22:58:51.709Z,98464.81
2023-02-22T23:01:26.897Z,98464.56
2023-02-22T23:04:02.138Z,98469.41
2023-02-22T23:06:40.759Z,98472.59
2023-02-22T23:09:13.338Z,98469.22
2023-02-22T23:11:46.683Z,98470.53
2023-02-22T23:14:16.003Z,98475.94
2023-02-22T23:16:43.014Z,98468.53
2023-02-22T23:19:10.024Z,98468.41
2023-02-22T23:21:37.520Z,98471.59
2023-02-22T23:24:08.416Z,98470.22
2023-02-22T23:26:35.512Z,98471.84
2023-02-22T23:29:02.920Z,98472.91
2023-02-22T23:31:30.091Z,98465.53
2023-02-22T23:33:59.016Z,98468.47
2023-02-22T23:36:26.991Z,98465.19
2023-02-22T23:38:54.359Z,98461.41
2023-02-22T23:41:25.057Z,98460.59
2023-02-22T23:43:52.003Z,98463.50
2023-02-22T23:46:19.021Z,98459.16
2023-02-22T23:48:54.758Z,98459.78
2023-02-22T23:51:26.515Z,98462.81
2023-02-22T23:53:57.472Z,98460.69
2023-02-22T23:56:27.052Z,98460.09
2023-02-22T23:58:57.377Z,98453.28
